sensor_id;sensor_type;location;lat;lon;timestamp;P1;durP1;ratioP1;P2;durP2;ratioP2
20906;SDS011;10613;50.966;5.814;2023-08-08T00:01:55;8.50;;;8.50;;
20906;SDS011;10613;50.966;5.814;2023-08-08T00:06:02;5.50;;;5.50;;
20906;SDS011;10613;50.966;5.814;2023-08-08T00:10:09;9.00;;;7.25;;
20906;SDS011;10613;50.966;5.814;2023-08-08T00:14:16;5.50;;;5.50;;
20906;SDS011;10613;50.966;5.814;2023-08-08T00:18:23;5.00;;;5.00;;
20906;SDS011;10613;50.966;5.814;2023-08-08T00:22:30;7.00;;;7.00;;
20906;SDS011;10613;50.966;5.814;2023-08-08T00:26:37;8.50;;;7.00;;
20906;SDS011;10613;50.966;5.814;2023-08-08T00:30:44;5.00;;;5.00;;
20906;SDS011;10613;50.966;5.814;2023-08-08T00:34:51;7.50;;;5.75;;
20906;SDS011;10613;50.966;5.814;2023-08-08T00:38:58;10.00;;;10.00;;
20906;SDS011;10613;50.966;5.814;2023-08-08T00:43:05;10.00;;;9.00;;
20906;SDS011;10613;50.966;5.814;2023-08-08T00:47:12;9.50;;;9.50;;
20906;SDS011;10613;50.966;5.814;2023-08-08T00:51:20;8.00;;;6.00;;
20906;SDS011;10613;50.966;5.814;2023-08-08T00:55:28;8.50;;;7.25;;
20906;SDS011;10613;50.966;5.814;2023-08-08T00:59:36;7.00;;;7.00;;
20906;SDS011;10613;50.966;5.814;2023-08-08T01:03:43;6.00;;;6.00;;
20906;SDS011;10613;50.966;5.814;2023-08-08T01:07:59;5.25;;;5.25;;
20906;SDS011;10613;50.966;5.814;2023-08-08T01:12:12;6.50;;;6.50;;
20906;SDS011;10613;50.966;5.814;2023-08-08T01:16:19;5.25;;;5.25;;
20906;SDS011;10613;50.966;5.814;2023-08-08T01:20:26;7.00;;;7.00;;
20906;SDS011;10613;50.966;5.814;2023-08-08T01:24:33;6.25;;;5.00;;
20906;SDS011;10613;50.966;5.814;2023-08-08T01:28:43;4.00;;;4.00;;
20906;SDS011;10613;50.966;5.814;2023-08-08T01:32:50;6.25;;;6.25;;
20906;SDS011;10613;50.966;5.814;2023-08-08T01:36:59;6.50;;;5.00;;
20906;SDS011;10613;50.966;5.814;2023-08-08T01:41:08;7.75;;;7.75;;
20906;SDS011;10613;50.966;5.814;2023-08-08T01:45:16;7.75;;;7.00;;
20906;SDS011;10613;50.966;5.814;2023-08-08T01:49:24;8.00;;;8.00;;
20906;SDS011;10613;50.966;5.814;2023-08-08T01:53:30;8.00;;;8.00;;
20906;SDS011;10613;50.966;5.814;2023-08-08T01:57:37;5.00;;;5.00;;
20906;SDS011;10613;50.966;5.814;2023-08-08T02:01:45;7.75;;;6.25;;
20906;SDS011;10613;50.966;5.814;2023-08-08T02:05:51;5.00;;;5.00;;
20906;SDS011;10613;50.966;5.814;2023-08-08T02:09:59;7.75;;;7.75;;
20906;SDS011;10613;50.966;5.814;2023-08-08T02:14:05;7.00;;;7.00;;
20906;SDS011;10613;50.966;5.814;2023-08-08T02:18:13;7.00;;;6.00;;
20906;SDS011;10613;50.966;5.814;2023-08-08T02:22:20;5.25;;;5.00;;
20906;SDS011;10613;50.966;5.814;2023-08-08T02:26:26;5.00;;;5.00;;
20906;SDS011;10613;50.966;5.814;2023-08-08T02:30:34;5.00;;;5.00;;
20906;SDS011;10613;50.966;5.814;2023-08-08T02:34:43;10.50;;;8.75;;
20906;SDS011;10613;50.966;5.814;2023-08-08T02:38:51;7.50;;;7.50;;
20906;SDS011;10613;50.966;5.814;2023-08-08T02:43:00;7.00;;;7.00;;
20906;SDS011;10613;50.966;5.814;2023-08-08T02:47:07;8.00;;;8.00;;
20906;SDS011;10613;50.966;5.814;2023-08-08T02:51:15;8.25;;;7.00;;
20906;SDS011;10613;50.966;5.814;2023-08-08T02:55:22;7.50;;;7.00;;
20906;SDS011;10613;50.966;5.814;2023-08-08T02:59:29;5.00;;;5.00;;
20906;SDS011;10613;50.966;5.814;2023-08-08T03:03:39;5.75;;;5.75;;
20906;SDS011;10613;50.966;5.814;2023-08-08T03:07:46;7.00;;;5.00;;
20906;SDS011;10613;50.966;5.814;2023-08-08T03:11:53;7.75;;;6.25;;
20906;SDS011;10613;50.966;5.814;2023-08-08T03:16:00;7.50;;;7.50;;
20906;SDS011;10613;50.966;5.814;2023-08-08T03:20:07;9.00;;;9.00;;
20906;SDS011;10613;50.966;5.814;2023-08-08T03:24:15;7.00;;;7.00;;
20906;SDS011;10613;50.966;5.814;2023-08-08T03:28:22;5.25;;;5.25;;
20906;SDS011;10613;50.966;5.814;2023-08-08T03:32:30;7.00;;;7.00;;
20906;SDS011;10613;50.966;5.814;2023-08-08T03:36:38;6.25;;;6.25;;
20906;SDS011;10613;50.966;5.814;2023-08-08T03:40:45;7.00;;;7.00;;
20906;SDS011;10613;50.966;5.814;2023-08-08T03:44:52;7.50;;;5.50;;
20906;SDS011;10613;50.966;5.814;2023-08-08T03:48:59;6.50;;;5.00;;
20906;SDS011;10613;50.966;5.814;2023-08-08T03:53:06;7.75;;;7.75;;
20906;SDS011;10613;50.966;5.814;2023-08-08T03:57:13;7.75;;;7.00;;
20906;SDS011;10613;50.966;5.814;2023-08-08T04:01:20;6.25;;;5.00;;
20906;SDS011;10613;50.966;5.814;2023-08-08T04:05:27;7.25;;;5.75;;
20906;SDS011;10613;50.966;5.814;2023-08-08T04:09:34;6.75;;;6.75;;
20906;SDS011;10613;50.966;5.814;2023-08-08T04:13:41;5.00;;;4.00;;
20906;SDS011;10613;50.966;5.814;2023-08-08T04:17:48;8.00;;;7.75;;
20906;SDS011;10613;50.966;5.814;2023-08-08T04:21:55;7.50;;;7.00;;
20906;SDS011;10613;50.966;5.814;2023-08-08T04:26:02;8.50;;;6.00;;
20906;SDS011;10613;50.966;5.814;2023-08-08T04:30:09;8.50;;;8.00;;
20906;SDS011;10613;50.966;5.814;2023-08-08T04:34:16;5.75;;;5.75;;
20906;SDS011;10613;50.966;5.814;2023-08-08T04:38:24;4.25;;;4.25;;
20906;SDS011;10613;50.966;5.814;2023-08-08T04:42:31;5.75;;;5.00;;
20906;SDS011;10613;50.966;5.814;2023-08-08T04:46:45;5.25;;;5.00;;
20906;SDS011;10613;50.966;5.814;2023-08-08T04:50:52;5.00;;;5.00;;
20906;SDS011;10613;50.966;5.814;2023-08-08T04:54:59;7.75;;;7.75;;
20906;SDS011;10613;50.966;5.814;2023-08-08T04:59:06;7.75;;;7.75;;
20906;SDS011;10613;50.966;5.814;2023-08-08T05:03:20;8.00;;;6.50;;
20906;SDS011;10613;50.966;5.814;2023-08-08T05:07:27;8.25;;;8.25;;
20906;SDS011;10613;50.966;5.814;2023-08-08T05:11:34;13.00;;;10.50;;
20906;SDS011;10613;50.966;5.814;2023-08-08T05:15:41;8.50;;;8.50;;
20906;SDS011;10613;50.966;5.814;2023-08-08T05:19:48;7.75;;;7.75;;
20906;SDS011;10613;50.966;5.814;2023-08-08T05:23:55;5.25;;;5.25;;
20906;SDS011;10613;50.966;5.814;2023-08-08T05:28:02;10.00;;;8.25;;
20906;SDS011;10613;50.966;5.814;2023-08-08T05:32:09;10.00;;;10.00;;
20906;SDS011;10613;50.966;5.814;2023-08-08T05:36:16;7.00;;;7.00;;
20906;SDS011;10613;50.966;5.814;2023-08-08T05:40:23;7.50;;;7.50;;
20906;SDS011;10613;50.966;5.814;2023-08-08T05:44:30;11.00;;;11.00;;
20906;SDS011;10613;50.966;5.814;2023-08-08T05:48:52;12.50;;;10.00;;
20906;SDS011;10613;50.966;5.814;2023-08-08T05:52:59;9.00;;;9.00;;
20906;SDS011;10613;50.966;5.814;2023-08-08T05:57:13;9.75;;;9.50;;
20906;SDS011;10613;50.966;5.814;2023-08-08T06:01:20;11.25;;;11.00;;
20906;SDS011;10613;50.966;5.814;2023-08-08T06:05:27;9.50;;;9.50;;
20906;SDS011;10613;50.966;5.814;2023-08-08T06:09:35;11.75;;;11.75;;
20906;SDS011;10613;50.966;5.814;2023-08-08T06:13:44;9.00;;;8.00;;
20906;SDS011;10613;50.966;5.814;2023-08-08T06:17:51;11.75;;;9.50;;
20906;SDS011;10613;50.966;5.814;2023-08-08T06:21:58;10.00;;;9.00;;
20906;SDS011;10613;50.966;5.814;2023-08-08T06:26:05;12.00;;;12.00;;
20906;SDS011;10613;50.966;5.814;2023-08-08T06:30:12;9.50;;;9.50;;
20906;SDS011;10613;50.966;5.814;2023-08-08T06:34:19;12.50;;;12.50;;
20906;SDS011;10613;50.966;5.814;2023-08-08T06:38:26;8.50;;;8.50;;
20906;SDS011;10613;50.966;5.814;2023-08-08T06:42:33;11.00;;;11.00;;
20906;SDS011;10613;50.966;5.814;2023-08-08T06:46:41;8.75;;;8.00;;
20906;SDS011;10613;50.966;5.814;2023-08-08T06:50:48;9.50;;;9.25;;
20906;SDS011;10613;50.966;5.814;2023-08-08T06:54:55;6.50;;;6.50;;
20906;SDS011;10613;50.966;5.814;2023-08-08T06:59:02;12.00;;;11.00;;
20906;SDS011;10613;50.966;5.814;2023-08-08T07:03:09;9.00;;;9.00;;
20906;SDS011;10613;50.966;5.814;2023-08-08T07:07:16;13.75;;;11.00;;
20906;SDS011;10613;50.966;5.814;2023-08-08T07:11:23;15.75;;;14.25;;
20906;SDS011;10613;50.966;5.814;2023-08-08T07:15:31;13.50;;;13.50;;
20906;SDS011;10613;50.966;5.814;2023-08-08T07:19:38;14.25;;;12.00;;
20906;SDS011;10613;50.966;5.814;2023-08-08T07:23:45;12.75;;;12.75;;
20906;SDS011;10613;50.966;5.814;2023-08-08T07:27:52;11.75;;;11.75;;
20906;SDS011;10613;50.966;5.814;2023-08-08T07:31:59;12.25;;;12.25;;
20906;SDS011;10613;50.966;5.814;2023-08-08T07:36:09;12.25;;;12.00;;
20906;SDS011;10613;50.966;5.814;2023-08-08T07:40:16;15.50;;;15.00;;
20906;SDS011;10613;50.966;5.814;2023-08-08T07:44:26;11.00;;;10.50;;
20906;SDS011;10613;50.966;5.814;2023-08-08T07:48:33;15.00;;;14.00;;
20906;SDS011;10613;50.966;5.814;2023-08-08T07:52:40;13.00;;;13.00;;
20906;SDS011;10613;50.966;5.814;2023-08-08T07:56:47;13.25;;;12.75;;
20906;SDS011;10613;50.966;5.814;2023-08-08T08:00:54;9.25;;;9.25;;
20906;SDS011;10613;50.966;5.814;2023-08-08T08:05:08;13.00;;;13.00;;
20906;SDS011;10613;50.966;5.814;2023-08-08T08:09:15;10.00;;;10.00;;
20906;SDS011;10613;50.966;5.814;2023-08-08T08:13:22;10.75;;;10.75;;
20906;SDS011;10613;50.966;5.814;2023-08-08T08:17:29;12.50;;;12.50;;
20906;SDS011;10613;50.966;5.814;2023-08-08T08:21:36;14.50;;;14.50;;
20906;SDS011;10613;50.966;5.814;2023-08-08T08:25:43;14.25;;;13.25;;
20906;SDS011;10613;50.966;5.814;2023-08-08T08:29:50;14.25;;;12.00;;
20906;SDS011;10613;50.966;5.814;2023-08-08T08:33:57;11.00;;;9.75;;
20906;SDS011;10613;50.966;5.814;2023-08-08T08:38:04;12.25;;;12.25;;
20906;SDS011;10613;50.966;5.814;2023-08-08T08:42:11;13.25;;;13.25;;
20906;SDS011;10613;50.966;5.814;2023-08-08T08:46:21;6.50;;;6.50;;
20906;SDS011;10613;50.966;5.814;2023-08-08T08:50:28;12.75;;;10.75;;
20906;SDS011;10613;50.966;5.814;2023-08-08T08:54:36;11.25;;;10.75;;
20906;SDS011;10613;50.966;5.814;2023-08-08T08:58:43;15.50;;;12.75;;
20906;SDS011;10613;50.966;5.814;2023-08-08T09:02:50;9.00;;;9.00;;
20906;SDS011;10613;50.966;5.814;2023-08-08T09:06:57;11.75;;;11.00;;
20906;SDS011;10613;50.966;5.814;2023-08-08T09:11:04;12.00;;;12.00;;
20906;SDS011;10613;50.966;5.814;2023-08-08T09:15:11;11.00;;;10.75;;
20906;SDS011;10613;50.966;5.814;2023-08-08T09:19:18;11.00;;;9.00;;
20906;SDS011;10613;50.966;5.814;2023-08-08T09:23:25;13.75;;;11.00;;
20906;SDS011;10613;50.966;5.814;2023-08-08T09:27:32;9.75;;;9.75;;
20906;SDS011;10613;50.966;5.814;2023-08-08T09:31:39;9.75;;;9.75;;
20906;SDS011;10613;50.966;5.814;2023-08-08T09:35:46;11.75;;;10.00;;
20906;SDS011;10613;50.966;5.814;2023-08-08T09:39:59;9.50;;;9.50;;
20906;SDS011;10613;50.966;5.814;2023-08-08T09:44:07;9.00;;;9.00;;
20906;SDS011;10613;50.966;5.814;2023-08-08T09:48:14;10.00;;;10.00;;
20906;SDS011;10613;50.966;5.814;2023-08-08T09:52:22;11.00;;;11.00;;
20906;SDS011;10613;50.966;5.814;2023-08-08T09:56:29;12.00;;;9.00;;
20906;SDS011;10613;50.966;5.814;2023-08-08T10:00:36;8.00;;;8.00;;
20906;SDS011;10613;50.966;5.814;2023-08-08T10:04:44;9.25;;;9.25;;
20906;SDS011;10613;50.966;5.814;2023-08-08T10:08:51;8.50;;;8.00;;
20906;SDS011;10613;50.966;5.814;2023-08-08T10:12:58;8.25;;;8.25;;
20906;SDS011;10613;50.966;5.814;2023-08-08T10:17:05;8.25;;;8.25;;
20906;SDS011;10613;50.966;5.814;2023-08-08T10:21:12;10.00;;;7.25;;
20906;SDS011;10613;50.966;5.814;2023-08-08T10:25:23;10.00;;;9.00;;
20906;SDS011;10613;50.966;5.814;2023-08-08T10:29:31;10.50;;;9.50;;
20906;SDS011;10613;50.966;5.814;2023-08-08T10:33:42;9.50;;;9.50;;
20906;SDS011;10613;50.966;5.814;2023-08-08T10:37:53;9.00;;;9.00;;
20906;SDS011;10613;50.966;5.814;2023-08-08T10:42:01;10.00;;;9.25;;
20906;SDS011;10613;50.966;5.814;2023-08-08T10:46:09;9.75;;;8.00;;
20906;SDS011;10613;50.966;5.814;2023-08-08T10:50:21;8.50;;;8.50;;
20906;SDS011;10613;50.966;5.814;2023-08-08T10:54:28;10.00;;;10.00;;
20906;SDS011;10613;50.966;5.814;2023-08-08T10:58:38;9.25;;;9.25;;
20906;SDS011;10613;50.966;5.814;2023-08-08T11:02:45;7.50;;;7.50;;
20906;SDS011;10613;50.966;5.814;2023-08-08T11:06:53;5.75;;;5.75;;
20906;SDS011;10613;50.966;5.814;2023-08-08T11:11:00;8.00;;;8.00;;
20906;SDS011;10613;50.966;5.814;2023-08-08T11:15:07;8.75;;;8.75;;
20906;SDS011;10613;50.966;5.814;2023-08-08T11:19:14;10.25;;;8.50;;
20906;SDS011;10613;50.966;5.814;2023-08-08T11:23:22;10.50;;;10.50;;
20906;SDS011;10613;50.966;5.814;2023-08-08T11:27:29;11.75;;;11.75;;
20906;SDS011;10613;50.966;5.814;2023-08-08T11:31:36;8.75;;;8.75;;
20906;SDS011;10613;50.966;5.814;2023-08-08T11:35:44;6.25;;;6.25;;
20906;SDS011;10613;50.966;5.814;2023-08-08T11:39:53;7.25;;;7.25;;
20906;SDS011;10613;50.966;5.814;2023-08-08T11:44:07;8.75;;;8.75;;
20906;SDS011;10613;50.966;5.814;2023-08-08T11:48:14;7.00;;;7.00;;
20906;SDS011;10613;50.966;5.814;2023-08-08T11:52:22;6.00;;;6.00;;
20906;SDS011;10613;50.966;5.814;2023-08-08T11:56:32;9.25;;;9.00;;
20906;SDS011;10613;50.966;5.814;2023-08-08T12:00:39;7.25;;;6.75;;
20906;SDS011;10613;50.966;5.814;2023-08-08T12:04:46;6.00;;;6.00;;
20906;SDS011;10613;50.966;5.814;2023-08-08T12:08:53;6.25;;;6.25;;
20906;SDS011;10613;50.966;5.814;2023-08-08T12:13:00;10.50;;;9.00;;
20906;SDS011;10613;50.966;5.814;2023-08-08T12:17:07;8.25;;;8.25;;
20906;SDS011;10613;50.966;5.814;2023-08-08T12:21:15;6.50;;;6.50;;
20906;SDS011;10613;50.966;5.814;2023-08-08T12:25:22;7.00;;;7.00;;
20906;SDS011;10613;50.966;5.814;2023-08-08T12:29:29;9.50;;;8.75;;
20906;SDS011;10613;50.966;5.814;2023-08-08T12:33:36;9.00;;;9.00;;
20906;SDS011;10613;50.966;5.814;2023-08-08T12:37:43;9.00;;;8.00;;
20906;SDS011;10613;50.966;5.814;2023-08-08T12:41:50;9.25;;;9.25;;
20906;SDS011;10613;50.966;5.814;2023-08-08T12:45:57;9.00;;;9.00;;
20906;SDS011;10613;50.966;5.814;2023-08-08T12:50:04;8.50;;;8.50;;
20906;SDS011;10613;50.966;5.814;2023-08-08T12:54:11;9.00;;;6.00;;
20906;SDS011;10613;50.966;5.814;2023-08-08T12:58:18;7.75;;;7.75;;
20906;SDS011;10613;50.966;5.814;2023-08-08T13:02:25;7.50;;;7.50;;
20906;SDS011;10613;50.966;5.814;2023-08-08T13:06:32;10.00;;;10.00;;
20906;SDS011;10613;50.966;5.814;2023-08-08T13:10:40;8.75;;;8.75;;
20906;SDS011;10613;50.966;5.814;2023-08-08T13:14:47;6.25;;;6.25;;
20906;SDS011;10613;50.966;5.814;2023-08-08T13:18:54;5.75;;;5.75;;
20906;SDS011;10613;50.966;5.814;2023-08-08T13:23:01;6.50;;;5.00;;
20906;SDS011;10613;50.966;5.814;2023-08-08T13:27:08;8.50;;;6.75;;
20906;SDS011;10613;50.966;5.814;2023-08-08T13:31:15;6.00;;;6.00;;
20906;SDS011;10613;50.966;5.814;2023-08-08T13:35:22;9.50;;;9.50;;
20906;SDS011;10613;50.966;5.814;2023-08-08T13:39:29;9.50;;;9.25;;
20906;SDS011;10613;50.966;5.814;2023-08-08T13:43:36;7.00;;;7.00;;
20906;SDS011;10613;50.966;5.814;2023-08-08T13:47:43;6.25;;;6.00;;
20906;SDS011;10613;50.966;5.814;2023-08-08T13:51:57;6.75;;;6.75;;
20906;SDS011;10613;50.966;5.814;2023-08-08T13:56:04;8.00;;;8.00;;
20906;SDS011;10613;50.966;5.814;2023-08-08T14:00:11;6.25;;;6.25;;
20906;SDS011;10613;50.966;5.814;2023-08-08T14:04:19;6.00;;;6.00;;
20906;SDS011;10613;50.966;5.814;2023-08-08T14:08:26;9.00;;;9.00;;
20906;SDS011;10613;50.966;5.814;2023-08-08T14:12:33;6.25;;;6.25;;
20906;SDS011;10613;50.966;5.814;2023-08-08T14:16:40;5.00;;;5.00;;
20906;SDS011;10613;50.966;5.814;2023-08-08T14:20:47;8.75;;;6.00;;
20906;SDS011;10613;50.966;5.814;2023-08-08T14:24:54;6.75;;;6.00;;
20906;SDS011;10613;50.966;5.814;2023-08-08T14:29:01;5.00;;;5.00;;
20906;SDS011;10613;50.966;5.814;2023-08-08T14:33:08;6.75;;;6.75;;
20906;SDS011;10613;50.966;5.814;2023-08-08T14:37:15;6.00;;;6.00;;
20906;SDS011;10613;50.966;5.814;2023-08-08T14:41:22;5.25;;;5.25;;
20906;SDS011;10613;50.966;5.814;2023-08-08T14:45:29;7.00;;;6.00;;
20906;SDS011;10613;50.966;5.814;2023-08-08T14:49:36;5.00;;;5.00;;
20906;SDS011;10613;50.966;5.814;2023-08-08T14:53:43;10.50;;;10.00;;
20906;SDS011;10613;50.966;5.814;2023-08-08T14:57:50;7.50;;;7.50;;
20906;SDS011;10613;50.966;5.814;2023-08-08T15:01:57;7.00;;;6.00;;
20906;SDS011;10613;50.966;5.814;2023-08-08T15:06:04;6.75;;;6.75;;
20906;SDS011;10613;50.966;5.814;2023-08-08T15:10:11;10.00;;;8.25;;
20906;SDS011;10613;50.966;5.814;2023-08-08T15:14:18;7.00;;;7.00;;
20906;SDS011;10613;50.966;5.814;2023-08-08T15:18:25;8.50;;;6.50;;
20906;SDS011;10613;50.966;5.814;2023-08-08T15:22:32;4.50;;;4.50;;
20906;SDS011;10613;50.966;5.814;2023-08-08T15:26:39;6.25;;;6.25;;
20906;SDS011;10613;50.966;5.814;2023-08-08T15:30:46;7.00;;;7.00;;
20906;SDS011;10613;50.966;5.814;2023-08-08T15:34:53;5.25;;;5.25;;
20906;SDS011;10613;50.966;5.814;2023-08-08T15:39:00;7.50;;;7.50;;
20906;SDS011;10613;50.966;5.814;2023-08-08T15:43:07;10.50;;;9.00;;
20906;SDS011;10613;50.966;5.814;2023-08-08T15:47:14;7.00;;;5.50;;
20906;SDS011;10613;50.966;5.814;2023-08-08T15:51:21;4.50;;;4.50;;
20906;SDS011;10613;50.966;5.814;2023-08-08T15:55:28;8.75;;;8.75;;
20906;SDS011;10613;50.966;5.814;2023-08-08T15:59:35;6.00;;;6.00;;
20906;SDS011;10613;50.966;5.814;2023-08-08T16:03:43;6.50;;;6.50;;
20906;SDS011;10613;50.966;5.814;2023-08-08T16:07:50;5.50;;;5.50;;
20906;SDS011;10613;50.966;5.814;2023-08-08T16:11:58;5.00;;;5.00;;
20906;SDS011;10613;50.966;5.814;2023-08-08T16:16:05;7.00;;;6.00;;
20906;SDS011;10613;50.966;5.814;2023-08-08T16:20:12;5.75;;;5.75;;
20906;SDS011;10613;50.966;5.814;2023-08-08T16:24:19;5.50;;;5.50;;
20906;SDS011;10613;50.966;5.814;2023-08-08T16:28:26;7.00;;;7.00;;
20906;SDS011;10613;50.966;5.814;2023-08-08T16:32:34;7.00;;;7.00;;
20906;SDS011;10613;50.966;5.814;2023-08-08T16:36:41;5.75;;;5.75;;
20906;SDS011;10613;50.966;5.814;2023-08-08T16:40:48;6.75;;;6.75;;
20906;SDS011;10613;50.966;5.814;2023-08-08T16:44:55;5.25;;;5.25;;
20906;SDS011;10613;50.966;5.814;2023-08-08T16:49:02;5.50;;;5.50;;
20906;SDS011;10613;50.966;5.814;2023-08-08T16:53:09;5.25;;;5.25;;
20906;SDS011;10613;50.966;5.814;2023-08-08T16:57:16;6.25;;;5.25;;
20906;SDS011;10613;50.966;5.814;2023-08-08T17:01:23;7.00;;;7.00;;
20906;SDS011;10613;50.966;5.814;2023-08-08T17:05:30;7.50;;;6.00;;
20906;SDS011;10613;50.966;5.814;2023-08-08T17:09:37;10.25;;;9.75;;
20906;SDS011;10613;50.966;5.814;2023-08-08T17:13:45;5.50;;;5.50;;
20906;SDS011;10613;50.966;5.814;2023-08-08T17:17:54;9.00;;;6.50;;
20906;SDS011;10613;50.966;5.814;2023-08-08T17:22:00;5.75;;;5.00;;
20906;SDS011;10613;50.966;5.814;2023-08-08T17:26:14;9.75;;;7.00;;
20906;SDS011;10613;50.966;5.814;2023-08-08T17:30:21;5.75;;;5.75;;
20906;SDS011;10613;50.966;5.814;2023-08-08T17:34:28;6.00;;;6.00;;
20906;SDS011;10613;50.966;5.814;2023-08-08T17:38:35;8.00;;;7.50;;
20906;SDS011;10613;50.966;5.814;2023-08-08T17:42:42;5.75;;;5.00;;
20906;SDS011;10613;50.966;5.814;2023-08-08T17:46:49;5.25;;;5.25;;
20906;SDS011;10613;50.966;5.814;2023-08-08T17:50:56;4.00;;;4.00;;
20906;SDS011;10613;50.966;5.814;2023-08-08T17:55:04;6.00;;;6.00;;
20906;SDS011;10613;50.966;5.814;2023-08-08T17:59:12;6.00;;;6.00;;
20906;SDS011;10613;50.966;5.814;2023-08-08T18:03:19;6.00;;;6.00;;
20906;SDS011;10613;50.966;5.814;2023-08-08T18:07:27;5.50;;;5.50;;
20906;SDS011;10613;50.966;5.814;2023-08-08T18:11:34;5.75;;;5.75;;
20906;SDS011;10613;50.966;5.814;2023-08-08T18:15:47;6.25;;;6.25;;
20906;SDS011;10613;50.966;5.814;2023-08-08T18:19:56;8.50;;;8.50;;
20906;SDS011;10613;50.966;5.814;2023-08-08T18:24:04;9.00;;;7.00;;
20906;SDS011;10613;50.966;5.814;2023-08-08T18:28:11;6.50;;;5.00;;
20906;SDS011;10613;50.966;5.814;2023-08-08T18:32:18;6.00;;;4.25;;
20906;SDS011;10613;50.966;5.814;2023-08-08T18:36:25;5.00;;;5.00;;
20906;SDS011;10613;50.966;5.814;2023-08-08T18:40:32;6.00;;;6.00;;
20906;SDS011;10613;50.966;5.814;2023-08-08T18:44:39;5.00;;;5.00;;
20906;SDS011;10613;50.966;5.814;2023-08-08T18:48:46;4.00;;;4.00;;
20906;SDS011;10613;50.966;5.814;2023-08-08T18:52:53;6.00;;;5.25;;
20906;SDS011;10613;50.966;5.814;2023-08-08T18:57:00;5.75;;;5.75;;
20906;SDS011;10613;50.966;5.814;2023-08-08T19:01:07;5.00;;;5.00;;
20906;SDS011;10613;50.966;5.814;2023-08-08T19:05:14;5.25;;;5.25;;
20906;SDS011;10613;50.966;5.814;2023-08-08T19:09:21;5.75;;;5.75;;
20906;SDS011;10613;50.966;5.814;2023-08-08T19:13:28;5.50;;;5.50;;
20906;SDS011;10613;50.966;5.814;2023-08-08T19:17:35;8.25;;;8.25;;
20906;SDS011;10613;50.966;5.814;2023-08-08T19:21:42;6.00;;;6.00;;
20906;SDS011;10613;50.966;5.814;2023-08-08T19:25:49;8.00;;;8.00;;
20906;SDS011;10613;50.966;5.814;2023-08-08T19:29:56;7.50;;;7.50;;
20906;SDS011;10613;50.966;5.814;2023-08-08T19:34:10;5.25;;;5.25;;
20906;SDS011;10613;50.966;5.814;2023-08-08T19:38:17;5.50;;;5.50;;
20906;SDS011;10613;50.966;5.814;2023-08-08T19:42:24;5.25;;;5.25;;
20906;SDS011;10613;50.966;5.814;2023-08-08T19:46:31;5.00;;;5.00;;
20906;SDS011;10613;50.966;5.814;2023-08-08T19:50:38;5.00;;;5.00;;
20906;SDS011;10613;50.966;5.814;2023-08-08T19:54:47;5.00;;;5.00;;
20906;SDS011;10613;50.966;5.814;2023-08-08T19:58:54;5.50;;;5.50;;
20906;SDS011;10613;50.966;5.814;2023-08-08T20:03:01;6.00;;;6.00;;
20906;SDS011;10613;50.966;5.814;2023-08-08T20:07:08;6.50;;;6.50;;
20906;SDS011;10613;50.966;5.814;2023-08-08T20:11:15;5.25;;;5.25;;
20906;SDS011;10613;50.966;5.814;2023-08-08T20:15:22;5.00;;;5.00;;
20906;SDS011;10613;50.966;5.814;2023-08-08T20:19:29;7.50;;;7.00;;
20906;SDS011;10613;50.966;5.814;2023-08-08T20:23:36;4.25;;;4.25;;
20906;SDS011;10613;50.966;5.814;2023-08-08T20:27:43;8.50;;;7.75;;
20906;SDS011;10613;50.966;5.814;2023-08-08T20:31:50;5.50;;;5.50;;
20906;SDS011;10613;50.966;5.814;2023-08-08T20:35:57;9.00;;;6.50;;
20906;SDS011;10613;50.966;5.814;2023-08-08T20:40:04;7.00;;;5.00;;
20906;SDS011;10613;50.966;5.814;2023-08-08T20:44:11;8.75;;;8.75;;
20906;SDS011;10613;50.966;5.814;2023-08-08T20:48:18;7.25;;;6.00;;
20906;SDS011;10613;50.966;5.814;2023-08-08T20:52:30;6.00;;;5.00;;
20906;SDS011;10613;50.966;5.814;2023-08-08T20:56:58;8.00;;;8.00;;
20906;SDS011;10613;50.966;5.814;2023-08-08T21:01:41;8.50;;;7.00;;
20906;SDS011;10613;50.966;5.814;2023-08-08T21:05:48;7.00;;;7.00;;
20906;SDS011;10613;50.966;5.814;2023-08-08T21:09:55;5.25;;;5.25;;
20906;SDS011;10613;50.966;5.814;2023-08-08T21:14:02;5.75;;;5.75;;
20906;SDS011;10613;50.966;5.814;2023-08-08T21:18:09;6.00;;;6.00;;
20906;SDS011;10613;50.966;5.814;2023-08-08T21:22:16;5.00;;;5.00;;
20906;SDS011;10613;50.966;5.814;2023-08-08T21:26:23;5.50;;;5.00;;
20906;SDS011;10613;50.966;5.814;2023-08-08T21:30:30;11.00;;;9.00;;
20906;SDS011;10613;50.966;5.814;2023-08-08T21:34:37;5.00;;;5.00;;
20906;SDS011;10613;50.966;5.814;2023-08-08T21:38:44;4.00;;;4.00;;
20906;SDS011;10613;50.966;5.814;2023-08-08T21:42:51;5.00;;;5.00;;
20906;SDS011;10613;50.966;5.814;2023-08-08T21:46:58;5.75;;;5.75;;
20906;SDS011;10613;50.966;5.814;2023-08-08T21:51:05;6.50;;;5.25;;
20906;SDS011;10613;50.966;5.814;2023-08-08T21:55:12;5.00;;;5.00;;
20906;SDS011;10613;50.966;5.814;2023-08-08T21:59:19;5.00;;;5.00;;
20906;SDS011;10613;50.966;5.814;2023-08-08T22:03:26;4.75;;;4.75;;
20906;SDS011;10613;50.966;5.814;2023-08-08T22:07:33;4.75;;;4.75;;
20906;SDS011;10613;50.966;5.814;2023-08-08T22:11:40;6.00;;;5.25;;
20906;SDS011;10613;50.966;5.814;2023-08-08T22:15:47;5.00;;;5.00;;
20906;SDS011;10613;50.966;5.814;2023-08-08T22:20:01;5.75;;;5.75;;
20906;SDS011;10613;50.966;5.814;2023-08-08T22:24:08;6.00;;;6.00;;
20906;SDS011;10613;50.966;5.814;2023-08-08T22:28:15;6.00;;;6.00;;
20906;SDS011;10613;50.966;5.814;2023-08-08T22:32:22;6.00;;;5.50;;
20906;SDS011;10613;50.966;5.814;2023-08-08T22:36:29;7.50;;;7.50;;
20906;SDS011;10613;50.966;5.814;2023-08-08T22:40:36;5.50;;;5.50;;
20906;SDS011;10613;50.966;5.814;2023-08-08T22:44:43;7.00;;;7.00;;
20906;SDS011;10613;50.966;5.814;2023-08-08T22:48:50;7.50;;;7.50;;
20906;SDS011;10613;50.966;5.814;2023-08-08T22:52:57;5.50;;;5.50;;
20906;SDS011;10613;50.966;5.814;2023-08-08T22:57:04;7.50;;;7.00;;
20906;SDS011;10613;50.966;5.814;2023-08-08T23:01:11;8.00;;;8.00;;
20906;SDS011;10613;50.966;5.814;2023-08-08T23:05:18;8.50;;;8.00;;
20906;SDS011;10613;50.966;5.814;2023-08-08T23:09:25;5.50;;;5.50;;
20906;SDS011;10613;50.966;5.814;2023-08-08T23:13:32;6.25;;;6.25;;
20906;SDS011;10613;50.966;5.814;2023-08-08T23:17:39;8.00;;;8.00;;
20906;SDS011;10613;50.966;5.814;2023-08-08T23:21:46;8.00;;;7.00;;
20906;SDS011;10613;50.966;5.814;2023-08-08T23:25:53;6.50;;;6.50;;
20906;SDS011;10613;50.966;5.814;2023-08-08T23:30:00;6.50;;;6.00;;
20906;SDS011;10613;50.966;5.814;2023-08-08T23:34:07;8.75;;;8.75;;
20906;SDS011;10613;50.966;5.814;2023-08-08T23:38:14;6.00;;;6.00;;
20906;SDS011;10613;50.966;5.814;2023-08-08T23:42:21;4.50;;;4.50;;
20906;SDS011;10613;50.966;5.814;2023-08-08T23:46:28;10.75;;;9.75;;
20906;SDS011;10613;50.966;5.814;2023-08-08T23:50:35;7.50;;;7.50;;
20906;SDS011;10613;50.966;5.814;2023-08-08T23:54:42;5.25;;;5.25;;
20906;SDS011;10613;50.966;5.814;2023-08-08T23:58:49;5.00;;;5.00;;
